createdAt,value
2023-09-25T00:01:45.468Z,9.99
2023-09-25T00:04:13.068Z,9.91
2023-09-25T00:06:41.102Z,9.97
2023-09-25T00:09:08.703Z,9.91
2023-09-25T00:11:36.332Z,10.00
2023-09-25T00:14:03.993Z,9.95
2023-09-25T00:16:32.858Z,9.84
2023-09-25T00:19:00.481Z,9.82
2023-09-25T00:21:28.095Z,9.87
2023-09-25T00:23:55.911Z,9.77
2023-09-25T00:26:23.697Z,9.83
2023-09-25T00:28:51.642Z,9.78
2023-09-25T00:31:19.415Z,9.83
2023-09-25T00:33:48.609Z,9.66
2023-09-25T00:36:16.659Z,9.31
2023-09-25T00:38:44.392Z,9.77
2023-09-25T00:41:12.226Z,9.33
2023-09-25T00:43:39.959Z,9.86
2023-09-25T00:46:07.768Z,9.75
2023-09-25T00:48:36.892Z,9.87
2023-09-25T00:51:07.084Z,10.03
2023-09-25T00:53:35.443Z,9.85
2023-09-25T00:56:03.541Z,10.00
2023-09-25T00:58:31.606Z,9.80
2023-09-25T01:00:59.847Z,9.37
2023-09-25T01:03:27.584Z,9.72
2023-09-25T01:05:55.313Z,9.72
2023-09-25T01:08:24.379Z,9.68
2023-09-25T01:10:52.125Z,9.48
2023-09-25T01:13:19.696Z,9.52
2023-09-25T01:15:47.480Z,9.63
2023-09-25T01:18:15.279Z,9.54
2023-09-25T01:20:42.878Z,9.57
2023-09-25T01:23:11.788Z,9.68
2023-09-25T01:25:39.383Z,9.76
2023-09-25T01:28:07.215Z,9.59
2023-09-25T01:30:34.941Z,9.88
2023-09-25T01:33:02.743Z,9.53
2023-09-25T01:35:30.459Z,9.58
2023-09-25T01:37:59.497Z,9.90
2023-09-25T01:40:28.992Z,9.84
2023-09-25T01:42:57.145Z,9.72
2023-09-25T01:45:25.537Z,9.76
2023-09-25T01:47:55.628Z,9.72
2023-09-25T01:50:25.240Z,9.65
2023-09-25T01:52:54.986Z,9.72
2023-09-25T01:55:22.713Z,9.74
2023-09-25T01:57:51.646Z,9.83
2023-09-25T02:00:20.469Z,9.62
2023-09-25T02:02:49.055Z,9.72
2023-09-25T02:05:17.485Z,9.66
2023-09-25T02:07:45.464Z,9.82
2023-09-25T02:10:13.100Z,9.67
2023-09-25T02:12:40.712Z,9.77
2023-09-25T02:15:11.306Z,9.70
2023-09-25T02:17:39.009Z,9.64
2023-09-25T02:20:21.777Z,9.69
2023-09-25T02:22:50.158Z,9.69
2023-09-25T02:25:18.701Z,9.74
2023-09-25T02:27:47.116Z,9.66
2023-09-25T02:30:16.678Z,9.53
2023-09-25T02:32:44.912Z,9.41
2023-09-25T02:35:12.966Z,9.35
2023-09-25T02:37:41.933Z,9.50
2023-09-25T02:40:10.782Z,9.40
2023-09-25T02:42:38.417Z,9.40
2023-09-25T02:45:06.803Z,8.95
2023-09-25T02:47:35.855Z,9.12
2023-09-25T02:50:03.412Z,9.12
2023-09-25T02:52:31.008Z,9.07
2023-09-25T02:54:58.607Z,8.99
2023-09-25T02:57:26.271Z,8.97
2023-09-25T02:59:53.944Z,8.96
2023-09-25T03:02:21.899Z,9.04
2023-09-25T03:04:50.805Z,8.79
2023-09-25T03:07:18.713Z,8.68
2023-09-25T03:09:46.333Z,8.75
2023-09-25T03:12:14.060Z,8.61
2023-09-25T03:14:42.203Z,8.50
2023-09-25T03:17:09.763Z,8.51
2023-09-25T03:19:39.337Z,8.46
2023-09-25T03:22:08.394Z,8.43
2023-09-25T03:24:36.697Z,8.29
2023-09-25T03:27:04.286Z,8.27
2023-09-25T03:29:31.833Z,8.09
2023-09-25T03:31:59.342Z,8.23
2023-09-25T03:34:26.894Z,7.98
2023-09-25T03:36:54.440Z,8.14
2023-09-25T03:39:23.372Z,7.93
2023-09-25T03:41:51.058Z,8.47
2023-09-25T03:44:18.624Z,8.38
2023-09-25T03:46:46.211Z,8.22
2023-09-25T03:49:13.792Z,8.30
2023-09-25T03:51:41.466Z,8.24
2023-09-25T03:54:09.262Z,8.25
2023-09-25T03:56:38.924Z,7.99
2023-09-25T03:59:06.705Z,8.19
2023-09-25T04:01:34.294Z,8.31
2023-09-25T04:04:02.008Z,8.28
2023-09-25T04:06:29.645Z,8.27
2023-09-25T04:08:57.237Z,8.44
2023-09-25T04:11:25.330Z,8.29
2023-09-25T04:13:54.280Z,7.98
2023-09-25T04:16:23.542Z,8.14
2023-09-25T04:18:51.644Z,8.10
2023-09-25T04:21:19.535Z,8.18
2023-09-25T04:23:47.279Z,8.18
2023-09-25T04:26:15.135Z,8.10
2023-09-25T04:28:42.863Z,8.09
2023-09-25T04:31:12.438Z,8.13
2023-09-25T04:33:40.437Z,8.01
2023-09-25T04:36:11.188Z,7.98
2023-09-25T04:38:39.031Z,7.97
2023-09-25T04:41:07.068Z,8.11
2023-09-25T04:43:34.747Z,8.09
2023-09-25T04:46:02.667Z,8.11
2023-09-25T04:48:31.921Z,7.99
2023-09-25T04:50:59.867Z,7.76
2023-09-25T04:53:27.487Z,7.78
2023-09-25T04:55:55.251Z,7.93
2023-09-25T04:58:22.931Z,7.88
2023-09-25T05:00:50.734Z,7.93
2023-09-25T05:03:18.497Z,7.73
2023-09-25T05:05:47.684Z,7.99
2023-09-25T05:08:16.277Z,8.05
2023-09-25T05:10:45.659Z,8.07
2023-09-25T05:13:13.395Z,8.03
2023-09-25T05:15:41.181Z,7.91
2023-09-25T05:18:08.872Z,7.73
2023-09-25T05:20:36.470Z,7.56
2023-09-25T05:23:05.680Z,7.36
2023-09-25T05:25:33.454Z,7.51
2023-09-25T05:28:01.083Z,7.34
2023-09-25T05:30:28.660Z,7.31
2023-09-25T05:32:56.439Z,7.17
2023-09-25T05:35:24.410Z,7.20
2023-09-25T05:37:51.939Z,7.16
2023-09-25T05:40:21.189Z,7.18
2023-09-25T05:42:49.995Z,7.45
2023-09-25T05:45:19.040Z,7.52
2023-09-25T05:47:47.029Z,7.53
2023-09-25T05:50:14.815Z,7.59
2023-09-25T05:52:42.931Z,7.60
2023-09-25T05:55:11.758Z,7.61
2023-09-25T05:57:42.614Z,7.42
2023-09-25T06:00:13.190Z,7.68
2023-09-25T06:02:41.722Z,7.72
2023-09-25T06:05:10.486Z,7.89
2023-09-25T06:07:38.112Z,7.90
2023-09-25T06:10:06.256Z,8.09
2023-09-25T06:12:34.145Z,8.04
2023-09-25T06:15:06.374Z,8.17
2023-09-25T06:17:34.007Z,7.91
2023-09-25T06:20:01.904Z,7.55
2023-09-25T06:22:29.461Z,7.65
2023-09-25T06:24:57.369Z,7.54
2023-09-25T06:27:25.087Z,7.45
2023-09-25T06:29:52.902Z,7.98
2023-09-25T06:32:25.176Z,8.48
2023-09-25T06:34:54.023Z,8.58
2023-09-25T06:37:21.700Z,8.84
2023-09-25T06:39:49.316Z,9.26
2023-09-25T06:42:17.830Z,9.58
2023-09-25T06:44:46.464Z,9.69
2023-09-25T06:47:14.762Z,9.78
2023-09-25T06:49:43.909Z,9.96
2023-09-25T06:52:11.563Z,10.37
2023-09-25T06:54:39.329Z,10.87
2023-09-25T06:57:07.166Z,10.99
2023-09-25T06:59:35.298Z,10.91
2023-09-25T07:02:03.003Z,10.85
2023-09-25T07:04:30.848Z,10.71
2023-09-25T07:07:00.460Z,11.13
2023-09-25T07:09:29.497Z,11.12
2023-09-25T07:11:57.091Z,11.15
2023-09-25T07:14:25.316Z,11.44
2023-09-25T07:16:53.429Z,11.66
2023-09-25T07:19:21.172Z,12.01
2023-09-25T07:21:48.751Z,12.12
2023-09-25T07:24:17.720Z,12.27
2023-09-25T07:26:45.359Z,12.71
2023-09-25T07:29:26.388Z,12.58
2023-09-25T07:31:58.308Z,12.96
2023-09-25T07:34:25.853Z,13.06
2023-09-25T07:36:53.510Z,13.00
2023-09-25T07:39:23.924Z,13.27
2023-09-25T07:41:51.626Z,13.26
2023-09-25T07:44:19.328Z,13.17
2023-09-25T07:46:48.666Z,13.68
2023-09-25T07:49:16.447Z,13.69
2023-09-25T07:51:44.807Z,13.88
2023-09-25T07:54:12.661Z,14.11
2023-09-25T07:56:41.703Z,14.18
2023-09-25T07:59:09.492Z,14.30
2023-09-25T08:01:39.958Z,14.48
2023-09-25T08:04:07.880Z,14.25
2023-09-25T08:06:35.615Z,14.44
2023-09-25T08:09:04.390Z,14.71
2023-09-25T08:11:31.962Z,14.72
2023-09-25T08:14:00.853Z,14.68
2023-09-25T08:16:28.703Z,14.59
2023-09-25T08:18:56.275Z,14.83
2023-09-25T08:21:23.960Z,15.07
2023-09-25T08:23:52.205Z,15.05
2023-09-25T08:26:20.523Z,15.16
2023-09-25T08:28:48.607Z,15.21
2023-09-25T08:31:17.754Z,15.11
2023-09-25T08:33:45.396Z,14.85
2023-09-25T08:36:14.740Z,15.04
2023-09-25T08:38:42.287Z,15.30
2023-09-25T08:41:11.318Z,15.50
2023-09-25T08:43:42.553Z,15.33
2023-09-25T08:46:10.867Z,15.59
2023-09-25T08:48:41.073Z,15.69
2023-09-25T08:51:08.973Z,15.90
2023-09-25T08:53:38.872Z,16.03
2023-09-25T08:56:07.441Z,15.96
2023-09-25T08:58:35.488Z,16.04
2023-09-25T09:01:03.087Z,16.26
2023-09-25T09:03:33.192Z,15.81
2023-09-25T09:06:02.732Z,15.88
2023-09-25T09:08:33.830Z,16.12
2023-09-25T09:11:10.375Z,16.09
2023-09-25T09:13:43.997Z,16.21
2023-09-25T09:16:20.250Z,15.84
2023-09-25T09:18:48.966Z,16.11
2023-09-25T09:21:27.953Z,15.96
2023-09-25T09:23:58.096Z,16.05
2023-09-25T09:26:26.288Z,16.31
2023-09-25T09:28:55.271Z,16.18
2023-09-25T09:31:23.176Z,16.25
2023-09-25T09:33:51.515Z,16.45
2023-09-25T09:36:20.988Z,16.50
2023-09-25T09:38:50.936Z,16.65
2023-09-25T09:41:20.080Z,16.83
2023-09-25T09:43:49.303Z,16.71
2023-09-25T09:46:18.225Z,16.44
2023-09-25T09:48:48.714Z,16.88
2023-09-25T09:51:18.924Z,16.87
2023-09-25T09:53:47.999Z,17.02
2023-09-25T09:56:19.272Z,16.97
2023-09-25T09:58:48.893Z,16.69
2023-09-25T10:01:17.331Z,16.94
2023-09-25T10:03:45.166Z,16.99
2023-09-25T10:06:12.961Z,17.04
2023-09-25T10:08:40.582Z,17.12
2023-09-25T10:11:24.220Z,17.23
2023-09-25T10:13:56.182Z,17.22
2023-09-25T10:16:23.924Z,17.36
2023-09-25T10:18:53.799Z,17.39
2023-09-25T10:21:21.523Z,17.45
2023-09-25T10:23:51.224Z,17.57
2023-09-25T10:26:24.407Z,17.66
2023-09-25T10:29:00.572Z,17.82
2023-09-25T10:31:30.571Z,17.83
2023-09-25T10:34:00.002Z,17.90
2023-09-25T10:36:42.251Z,17.87
2023-09-25T10:39:10.814Z,18.12
2023-09-25T10:41:39.775Z,18.03
2023-09-25T10:44:07.703Z,17.88
2023-09-25T10:46:36.558Z,18.10
2023-09-25T10:49:04.387Z,18.19
2023-09-25T10:51:32.307Z,18.36
2023-09-25T10:54:00.053Z,18.45
2023-09-25T10:56:27.788Z,18.54
2023-09-25T10:58:57.734Z,17.72
2023-09-25T11:01:25.939Z,18.51
2023-09-25T11:03:56.717Z,18.33
2023-09-25T11:06:24.808Z,18.37
2023-09-25T11:08:59.545Z,18.41
2023-09-25T11:11:27.278Z,18.49
2023-09-25T11:13:56.681Z,18.29
2023-09-25T11:16:25.668Z,18.55
2023-09-25T11:19:07.271Z,18.14
2023-09-25T11:21:35.005Z,18.39
2023-09-25T11:24:06.569Z,18.42
2023-09-25T11:26:38.062Z,18.59
2023-09-25T11:29:09.716Z,18.42
2023-09-25T11:31:54.634Z,18.52
2023-09-25T11:34:26.342Z,18.80
2023-09-25T11:36:54.099Z,18.74
2023-09-25T11:39:21.953Z,18.46
2023-09-25T11:41:49.951Z,18.74
2023-09-25T11:44:19.085Z,18.78
2023-09-25T11:46:47.682Z,18.34
2023-09-25T11:49:15.723Z,18.89
2023-09-25T11:51:43.556Z,18.50
2023-09-25T11:54:12.328Z,18.68
2023-09-25T11:56:40.784Z,18.88
2023-09-25T11:59:10.177Z,18.65
2023-09-25T12:01:39.233Z,18.58
2023-09-25T12:04:07.533Z,19.03
2023-09-25T12:06:36.161Z,18.88
2023-09-25T12:09:12.172Z,18.54
2023-09-25T12:11:39.932Z,18.98
2023-09-25T12:14:07.596Z,18.87
2023-09-25T12:16:35.535Z,19.06
2023-09-25T12:19:05.903Z,19.21
2023-09-25T12:21:33.950Z,19.06
2023-09-25T12:24:01.756Z,18.92
2023-09-25T12:26:29.534Z,18.72
2023-09-25T12:28:57.482Z,19.04
2023-09-25T12:31:25.286Z,19.02
2023-09-25T12:33:53.067Z,19.06
2023-09-25T12:36:22.111Z,19.20
2023-09-25T12:38:49.766Z,19.29
2023-09-25T12:41:17.628Z,19.44
2023-09-25T12:43:45.319Z,19.39
2023-09-25T12:46:13.582Z,19.60
2023-09-25T12:48:42.881Z,19.70
2023-09-25T12:51:10.898Z,19.73
2023-09-25T12:53:40.330Z,19.49
2023-09-25T12:56:08.295Z,19.39
2023-09-25T12:58:38.591Z,19.81
2023-09-25T13:01:06.625Z,19.46
2023-09-25T13:03:34.479Z,19.90
2023-09-25T13:06:04.229Z,19.94
2023-09-25T13:08:32.234Z,19.82
2023-09-25T13:11:01.524Z,19.86
2023-09-25T13:13:29.486Z,20.23
2023-09-25T13:15:57.233Z,20.30
2023-09-25T13:18:25.148Z,20.41
2023-09-25T13:20:52.955Z,20.42
2023-09-25T13:23:20.663Z,19.91
2023-09-25T13:25:48.236Z,20.45
2023-09-25T13:28:17.539Z,20.94
2023-09-25T13:30:45.456Z,20.56
2023-09-25T13:33:13.143Z,20.86
2023-09-25T13:35:40.865Z,20.89
2023-09-25T13:38:09.387Z,21.52
2023-09-25T13:40:38.137Z,21.61
2023-09-25T13:43:05.908Z,21.37
2023-09-25T13:45:34.948Z,20.78
2023-09-25T13:48:02.659Z,20.61
2023-09-25T13:50:30.290Z,20.93
2023-09-25T13:52:57.875Z,20.99
2023-09-25T13:55:25.506Z,21.29
2023-09-25T13:57:53.366Z,21.25
2023-09-25T14:00:21.074Z,20.78
2023-09-25T14:02:50.059Z,20.73
2023-09-25T14:05:20.727Z,21.12
2023-09-25T14:07:48.400Z,21.73
2023-09-25T14:10:16.131Z,22.03
2023-09-25T14:12:45.644Z,22.99
2023-09-25T14:15:14.995Z,22.73
2023-09-25T14:17:42.900Z,22.78
2023-09-25T14:20:12.982Z,22.52
2023-09-25T14:22:41.215Z,22.87
2023-09-25T14:25:09.359Z,23.35
2023-09-25T14:27:37.181Z,23.35
2023-09-25T14:30:05.373Z,22.68
2023-09-25T14:32:33.054Z,22.52
2023-09-25T14:35:01.134Z,22.55
2023-09-25T14:37:30.172Z,22.99
2023-09-25T14:39:58.335Z,23.07
2023-09-25T14:42:30.170Z,22.99
2023-09-25T14:44:57.797Z,23.10
2023-09-25T14:47:25.550Z,23.06
2023-09-25T14:49:53.387Z,23.47
2023-09-25T14:52:20.941Z,23.57
2023-09-25T14:54:51.099Z,23.54
2023-09-25T14:57:19.283Z,23.75
2023-09-25T14:59:46.930Z,23.12
2023-09-25T15:02:15.423Z,22.94
2023-09-25T15:04:43.610Z,22.94
2023-09-25T15:07:11.293Z,23.11
2023-09-25T15:09:39.412Z,22.58
2023-09-25T15:12:09.613Z,23.42
2023-09-25T15:14:37.220Z,23.44
2023-09-25T15:17:04.859Z,23.78
2023-09-25T15:19:32.446Z,23.92
2023-09-25T15:22:00.398Z,23.21
2023-09-25T15:24:28.121Z,23.30
2023-09-25T15:26:55.723Z,23.15
2023-09-25T15:29:24.581Z,23.55
2023-09-25T15:31:52.340Z,23.20
2023-09-25T15:34:19.934Z,24.04
2023-09-25T15:36:47.621Z,24.25
2023-09-25T15:39:15.322Z,24.14
2023-09-25T15:41:42.939Z,24.05
2023-09-25T15:44:10.487Z,23.79
2023-09-25T15:46:39.542Z,23.82
2023-09-25T15:49:07.332Z,23.01
2023-09-25T15:51:35.066Z,23.57
2023-09-25T15:54:02.901Z,24.44
2023-09-25T15:56:30.449Z,24.26
2023-09-25T15:58:57.987Z,24.04
2023-09-25T16:01:25.806Z,23.48
2023-09-25T16:03:55.048Z,23.16
2023-09-25T16:06:22.702Z,23.18
2023-09-25T16:08:50.281Z,23.06
2023-09-25T16:11:17.836Z,23.73
2023-09-25T16:13:45.431Z,23.88
2023-09-25T16:16:14.236Z,23.28
2023-09-25T16:18:42.294Z,23.30
2023-09-25T16:21:11.592Z,23.38
2023-09-25T16:23:39.472Z,23.27
2023-09-25T16:26:07.522Z,23.31
2023-09-25T16:28:35.194Z,22.89
2023-09-25T16:31:02.910Z,22.34
2023-09-25T16:33:30.776Z,22.10
2023-09-25T16:35:58.624Z,21.85
2023-09-25T16:38:27.944Z,20.81
2023-09-25T16:40:56.810Z,20.19
2023-09-25T16:43:24.874Z,19.51
2023-09-25T16:45:54.170Z,20.03
2023-09-25T16:48:22.060Z,19.27
2023-09-25T16:50:49.797Z,18.93
2023-09-25T16:53:17.574Z,18.49
2023-09-25T16:55:49.240Z,18.34
2023-09-25T16:58:17.064Z,18.03
2023-09-25T17:00:44.776Z,17.90
2023-09-25T17:03:14.800Z,17.74
2023-09-25T17:05:43.253Z,17.57
2023-09-25T17:08:11.471Z,17.29
2023-09-25T17:10:42.436Z,17.27
2023-09-25T17:13:12.074Z,17.20
2023-09-25T17:15:42.057Z,16.88
2023-09-25T17:18:13.537Z,16.65
2023-09-25T17:20:41.784Z,16.22
2023-09-25T17:23:10.764Z,16.03
2023-09-25T17:25:38.914Z,15.78
2023-09-25T17:28:07.867Z,15.81
2023-09-25T17:30:37.927Z,15.85
2023-09-25T17:33:06.571Z,15.63
2023-09-25T17:35:35.232Z,15.58
2023-09-25T17:38:03.126Z,15.30
2023-09-25T17:40:30.902Z,15.20
2023-09-25T17:42:58.474Z,14.95
2023-09-25T17:45:26.046Z,14.88
2023-09-25T17:47:54.923Z,15.05
2023-09-25T17:50:22.484Z,14.50
2023-09-25T17:52:50.206Z,14.21
2023-09-25T17:55:18.204Z,13.95
2023-09-25T17:57:46.398Z,13.86
2023-09-25T18:00:14.935Z,13.82
2023-09-25T18:02:42.598Z,13.63
2023-09-25T18:05:11.761Z,13.66
2023-09-25T18:07:39.407Z,13.67
2023-09-25T18:10:07.880Z,13.42
2023-09-25T18:12:37.777Z,13.19
2023-09-25T18:15:08.414Z,12.99
2023-09-25T18:17:35.972Z,12.91
2023-09-25T18:20:03.674Z,12.95
2023-09-25T18:22:33.049Z,12.68
2023-09-25T18:25:01.950Z,12.57
2023-09-25T18:27:31.117Z,12.48
2023-09-25T18:29:58.767Z,12.31
2023-09-25T18:32:26.433Z,12.42
2023-09-25T18:34:54.224Z,12.34
2023-09-25T18:37:22.058Z,12.16
2023-09-25T18:39:51.137Z,11.91
2023-09-25T18:42:18.810Z,12.23
2023-09-25T18:44:46.412Z,12.22
2023-09-25T18:47:13.988Z,12.09
2023-09-25T18:49:41.712Z,11.82
2023-09-25T18:52:09.338Z,11.93
2023-09-25T18:54:36.947Z,11.72
2023-09-25T18:57:05.918Z,11.47
2023-09-25T18:59:33.613Z,11.53
2023-09-25T19:02:01.347Z,11.67
2023-09-25T19:04:29.050Z,11.51
2023-09-25T19:06:56.768Z,11.76
2023-09-25T19:09:24.946Z,11.69
2023-09-25T19:11:52.636Z,11.38
2023-09-25T19:14:22.353Z,11.16
2023-09-25T19:16:50.046Z,10.94
2023-09-25T19:19:18.423Z,11.03
2023-09-25T19:21:46.196Z,11.07
2023-09-25T19:24:13.954Z,11.03
2023-09-25T19:26:41.710Z,10.69
2023-09-25T19:29:09.594Z,11.03
2023-09-25T19:31:43.007Z,10.89
2023-09-25T19:34:12.874Z,10.76
2023-09-25T19:36:42.289Z,10.30
2023-09-25T19:39:10.458Z,10.61
2023-09-25T19:41:38.108Z,10.11
2023-09-25T19:44:06.718Z,10.45
2023-09-25T19:46:35.213Z,10.48
2023-09-25T19:49:05.271Z,10.32
2023-09-25T19:51:35.143Z,9.84
2023-09-25T19:54:03.439Z,10.06
2023-09-25T19:56:31.062Z,10.15
2023-09-25T19:58:58.962Z,9.57
2023-09-25T20:01:27.278Z,9.85
2023-09-25T20:03:55.587Z,10.26
2023-09-25T20:06:26.384Z,10.20
2023-09-25T20:08:54.132Z,9.97
2023-09-25T20:11:21.769Z,9.86
2023-09-25T20:13:49.454Z,9.56
2023-09-25T20:16:17.433Z,9.37
2023-09-25T20:18:45.253Z,9.28
2023-09-25T20:21:13.528Z,9.30
2023-09-25T20:23:43.332Z,9.44
2023-09-25T20:26:11.310Z,8.97
2023-09-25T20:28:41.740Z,9.41
2023-09-25T20:31:10.177Z,9.46
2023-09-25T20:33:37.959Z,8.84
2023-09-25T20:36:06.196Z,9.54
2023-09-25T20:38:34.343Z,9.45
2023-09-25T20:41:03.917Z,9.34
2023-09-25T20:43:31.627Z,9.32
2023-09-25T20:45:59.407Z,9.13
2023-09-25T20:48:27.184Z,9.28
2023-09-25T20:50:54.867Z,9.26
2023-09-25T20:53:22.439Z,9.29
2023-09-25T20:55:50.185Z,9.22
2023-09-25T20:58:19.226Z,8.89
2023-09-25T21:00:46.837Z,9.10
2023-09-25T21:03:14.674Z,9.39
2023-09-25T21:05:42.312Z,9.48
2023-09-25T21:08:09.925Z,9.67
2023-09-25T21:10:37.458Z,9.66
2023-09-25T21:13:06.429Z,9.55
2023-09-25T21:15:36.658Z,9.50
2023-09-25T21:18:04.700Z,9.46
2023-09-25T21:20:32.754Z,9.41
2023-09-25T21:23:00.276Z,9.41
2023-09-25T21:25:28.022Z,9.54
2023-09-25T21:27:55.742Z,9.43
2023-09-25T21:30:23.361Z,9.27
2023-09-25T21:32:52.382Z,9.26
2023-09-25T21:35:20.611Z,9.08
2023-09-25T21:37:48.212Z,9.13
2023-09-25T21:40:15.893Z,9.03
2023-09-25T21:42:43.454Z,9.01
2023-09-25T21:45:11.852Z,8.95
2023-09-25T21:47:40.578Z,8.93
2023-09-25T21:50:10.662Z,8.73
2023-09-25T21:52:38.242Z,8.55
2023-09-25T21:55:06.829Z,8.43
2023-09-25T21:57:34.991Z,8.32
2023-09-25T22:00:04.408Z,8.23
2023-09-25T22:02:31.989Z,8.24
2023-09-25T22:04:59.598Z,8.19
2023-09-25T22:07:28.526Z,8.23
2023-09-25T22:09:56.138Z,8.23
2023-09-25T22:12:24.102Z,8.00
2023-09-25T22:14:52.227Z,8.10
2023-09-25T22:17:21.389Z,8.03
2023-09-25T22:19:49.395Z,7.68
2023-09-25T22:22:17.850Z,7.55
2023-09-25T22:24:47.844Z,7.68
2023-09-25T22:27:18.106Z,7.76
2023-09-25T22:29:46.197Z,7.64
2023-09-25T22:32:14.403Z,7.79
2023-09-25T22:34:46.328Z,7.38
2023-09-25T22:37:14.642Z,7.96
2023-09-25T22:39:42.684Z,8.11
2023-09-25T22:42:12.235Z,8.25
2023-09-25T22:44:40.288Z,8.14
2023-09-25T22:47:08.358Z,8.02
2023-09-25T22:49:36.268Z,7.55
2023-09-25T22:52:04.451Z,7.45
2023-09-25T22:54:32.469Z,7.53
2023-09-25T22:57:00.311Z,7.62
2023-09-25T22:59:30.312Z,7.32
2023-09-25T23:02:19.881Z,7.72
2023-09-25T23:04:48.396Z,7.57
2023-09-25T23:07:17.516Z,7.27
2023-09-25T23:09:45.723Z,7.52
2023-09-25T23:12:13.638Z,7.20
2023-09-25T23:14:43.024Z,7.42
2023-09-25T23:17:11.433Z,7.41
2023-09-25T23:19:39.797Z,7.46
2023-09-25T23:22:07.426Z,7.41
2023-09-25T23:24:35.047Z,7.34
2023-09-25T23:27:03.121Z,7.36
2023-09-25T23:29:30.699Z,7.06
2023-09-25T23:31:59.977Z,6.77
2023-09-25T23:34:27.670Z,6.61
2023-09-25T23:36:55.698Z,6.38
2023-09-25T23:39:24.104Z,6.16
2023-09-25T23:41:51.719Z,6.49
2023-09-25T23:44:19.277Z,6.51
2023-09-25T23:46:47.134Z,6.88
2023-09-25T23:49:17.182Z,7.18
2023-09-25T23:51:44.808Z,7.16
2023-09-25T23:54:12.326Z,6.48
2023-09-25T23:56:39.877Z,6.70
2023-09-25T23:59:07.741Z,6.71
